Time;durP1;ratioP1;P1;durP2;ratioP2;P2;SDS_P1;SDS_P2;PMS_P1;PMS_P2;Temp;Humidity;BMP_temperature;BMP_pressure;BME280_temperature;BME280_humidity;BME280_pressure;Samples;Min_cycle;Max_cycle;Signal;HPM_P1;HPM_P2
2022/11/20 00:01:28;;;;;;;14.60;9.40;;;5.40;99.90;;;;;;5047526;28;20182;-78
2022/11/20 00:03:57;;;;;;;14.20;10.03;;;5.40;99.90;;;;;;5049766;28;20437;-78
2022/11/20 00:06:23;;;;;;;12.00;9.03;;;5.40;99.90;;;;;;5043506;28;20268;-78
2022/11/20 00:08:50;;;;;;;13.53;9.63;;;5.50;99.90;;;;;;5041789;28;20177;-76
2022/11/20 00:11:21;;;;;;;13.10;9.87;;;5.40;99.90;;;;;;5039758;28;20240;-79
2022/11/20 00:13:49;;;;;;;15.20;10.77;;;5.40;99.90;;;;;;5040122;28;20321;-76
2022/11/20 00:16:20;;;;;;;13.60;9.70;;;5.40;99.90;;;;;;5054483;28;20208;-79
2022/11/20 00:18:45;;;;;;;13.50;9.60;;;5.40;99.90;;;;;;5047769;28;20186;-76
2022/11/20 00:21:17;;;;;;;13.03;9.60;;;5.40;99.90;;;;;;5044103;28;20179;-77
2022/11/20 00:23:46;;;;;;;14.13;9.70;;;5.40;99.90;;;;;;5056733;28;20211;-78
2022/11/20 00:26:17;;;;;;;15.37;10.60;;;5.40;99.90;;;;;;5048486;28;20184;-78
2022/11/20 00:28:50;;;;;;;13.27;9.63;;;5.40;99.90;;;;;;5056239;28;20214;-79
2022/11/20 00:31:19;;;;;;;12.00;9.30;;;5.40;99.90;;;;;;5055971;28;20189;-79
2022/11/20 00:33:48;;;;;;;12.40;9.20;;;5.40;99.90;;;;;;5048721;28;20268;-77
2022/11/20 00:36:16;;;;;;;11.70;8.93;;;5.40;99.90;;;;;;5055652;28;20201;-79
2022/11/20 00:38:45;;;;;;;12.70;9.03;;;5.30;99.90;;;;;;5049502;28;20182;-77
2022/11/20 00:41:13;;;;;;;12.40;9.20;;;5.40;99.90;;;;;;5049597;28;20318;-78
2022/11/20 00:43:42;;;;;;;11.57;8.83;;;5.30;99.90;;;;;;5042875;28;20193;-78
2022/11/20 00:46:15;;;;;;;14.07;9.47;;;5.40;99.90;;;;;;5044725;28;20174;-79
2022/11/20 00:48:41;;;;;;;12.63;9.43;;;5.30;99.90;;;;;;5042885;28;20202;-75
2022/11/20 00:51:06;;;;;;;11.83;8.93;;;5.40;99.90;;;;;;5044555;28;20189;-79
2022/11/20 00:53:35;;;;;;;11.77;8.53;;;5.30;99.90;;;;;;5038052;28;20196;-78
2022/11/20 00:56:06;;;;;;;15.33;10.37;;;5.30;99.90;;;;;;5047090;28;20262;-79
2022/11/20 00:58:38;;;;;;;12.83;9.53;;;5.30;99.90;;;;;;5048424;28;20173;-79
2022/11/20 01:01:14;;;;;;;11.43;9.07;;;5.30;99.90;;;;;;5039510;28;20174;-77
2022/11/20 01:03:45;;;;;;;13.07;9.57;;;5.40;99.90;;;;;;5053322;28;20202;-68
2022/11/20 01:06:15;;;;;;;13.27;9.60;;;5.30;99.90;;;;;;5041836;28;20194;-72
2022/11/20 01:08:43;;;;;;;12.77;9.73;;;5.40;99.90;;;;;;5040574;28;20174;-72
2022/11/20 01:11:12;;;;;;;13.47;9.57;;;5.40;99.90;;;;;;5052221;28;20183;-72
2022/11/20 01:13:41;;;;;;;14.27;10.07;;;5.40;99.90;;;;;;5051657;28;20264;-72
2022/11/20 01:16:12;;;;;;;14.13;10.30;;;5.40;99.90;;;;;;5036837;28;20244;-72
2022/11/20 01:18:40;;;;;;;13.40;10.00;;;5.30;99.90;;;;;;5044244;28;20335;-73
2022/11/20 01:21:15;;;;;;;13.47;9.90;;;5.40;99.90;;;;;;5041661;28;20185;-70
2022/11/20 01:23:45;;;;;;;14.53;9.67;;;5.40;99.90;;;;;;5035740;28;20181;-73
2022/11/20 01:26:15;;;;;;;13.13;9.90;;;5.40;99.90;;;;;;5041898;28;20177;-72
2022/11/20 01:28:41;;;;;;;13.53;10.07;;;5.40;99.90;;;;;;5051874;28;20170;-71
2022/11/20 01:31:15;;;;;;;13.73;9.73;;;5.30;99.90;;;;;;5047816;28;20247;-72
2022/11/20 01:33:42;;;;;;;14.63;9.53;;;5.30;99.90;;;;;;5051940;28;20196;-72
2022/11/20 01:36:09;;;;;;;12.63;9.50;;;5.30;99.90;;;;;;5045649;28;20284;-73
2022/11/20 01:38:35;;;;;;;12.10;8.73;;;5.40;99.90;;;;;;5054704;28;20209;-71
2022/11/20 01:41:04;;;;;;;12.50;8.90;;;5.40;99.90;;;;;;5040275;28;20224;-72
2022/11/20 01:43:30;;;;;;;13.80;9.80;;;5.30;99.90;;;;;;5046316;28;20385;-72
2022/11/20 01:46:00;;;;;;;13.50;9.60;;;5.40;99.90;;;;;;5045437;28;20189;-73
2022/11/20 01:48:49;;;;;;;12.37;8.90;;;5.30;99.90;;;;;;5045566;28;20208;-73
2022/11/20 01:51:34;;;;;;;12.30;8.97;;;5.40;99.90;;;;;;5038112;28;20246;-73
2022/11/20 01:54:06;;;;;;;10.13;7.83;;;5.40;99.90;;;;;;5050611;28;20235;-72
2022/11/20 01:56:35;;;;;;;12.63;8.83;;;5.40;99.90;;;;;;5047009;28;20224;-73
2022/11/20 01:59:03;;;;;;;12.73;8.63;;;5.30;99.90;;;;;;5048245;28;20177;-73
2022/11/20 02:01:29;;;;;;;12.77;8.90;;;5.30;99.90;;;;;;5049589;28;20228;-74
2022/11/20 02:03:58;;;;;;;12.33;9.63;;;5.30;99.90;;;;;;5047414;28;20255;-74
2022/11/20 02:06:27;;;;;;;13.57;9.97;;;5.30;99.90;;;;;;5051955;28;20204;-72
2022/11/20 02:08:55;;;;;;;12.10;9.13;;;5.40;99.90;;;;;;5044153;28;20176;-73
2022/11/20 02:11:21;;;;;;;12.00;9.00;;;5.40;99.90;;;;;;5045657;28;20182;-73
2022/11/20 02:13:50;;;;;;;13.80;9.80;;;5.40;99.90;;;;;;5036832;28;20178;-74
2022/11/20 02:16:21;;;;;;;14.17;10.67;;;5.40;99.90;;;;;;5046631;28;20173;-73
2022/11/20 02:18:52;;;;;;;13.27;9.30;;;5.40;99.90;;;;;;5043326;28;20233;-73
2022/11/20 02:22:01;;;;;;;11.30;8.63;;;5.40;99.90;;;;;;5049696;28;20178;-74
2022/11/20 02:24:26;;;;;;;9.83;7.50;;;5.40;99.90;;;;;;5005800;28;20198;-73
2022/11/20 02:27:06;;;;;;;10.07;8.00;;;5.40;99.90;;;;;;5031711;28;20200;-73
2022/11/20 02:29:48;;;;;;;9.33;7.37;;;5.40;99.90;;;;;;5046499;28;20185;-72
2022/11/20 02:32:24;;;;;;;10.73;7.60;;;5.40;99.90;;;;;;5043012;28;20209;-73
2022/11/20 02:34:50;;;;;;;9.67;7.07;;;5.40;99.90;;;;;;5044529;28;20165;-73
2022/11/20 02:37:16;;;;;;;10.60;7.90;;;5.40;99.90;;;;;;5037509;28;20206;-73
2022/11/20 02:39:48;;;;;;;11.80;8.20;;;5.40;99.90;;;;;;5043698;28;20226;-73
2022/11/20 02:42:20;;;;;;;10.07;7.67;;;5.40;99.90;;;;;;5042505;28;20170;-72
2022/11/20 02:44:45;;;;;;;10.07;7.33;;;5.40;99.90;;;;;;5045441;28;20174;-72
2022/11/20 02:47:16;;;;;;;9.60;7.67;;;5.40;99.90;;;;;;5036095;28;20178;-72
2022/11/20 02:49:44;;;;;;;10.47;8.13;;;5.40;99.90;;;;;;5041141;28;20216;-73
2022/11/20 02:52:09;;;;;;;9.50;7.57;;;5.40;99.90;;;;;;5046727;28;20185;-73
2022/11/20 02:54:37;;;;;;;10.37;7.83;;;5.40;99.90;;;;;;5048700;28;20190;-73
2022/11/20 02:57:03;;;;;;;11.27;7.90;;;5.40;99.90;;;;;;5041816;28;20476;-73
2022/11/20 02:59:28;;;;;;;10.53;7.93;;;5.40;99.90;;;;;;5041788;28;20232;-73
2022/11/20 03:01:54;;;;;;;14.90;8.83;;;5.40;99.90;;;;;;5042699;28;20292;-73
2022/11/20 03:04:19;;;;;;;11.47;8.63;;;5.40;99.90;;;;;;5043503;28;20189;-72
2022/11/20 03:06:47;;;;;;;11.63;8.87;;;5.40;99.90;;;;;;5051114;28;20228;-73
2022/11/20 03:09:13;;;;;;;11.23;8.33;;;5.40;99.90;;;;;;5051031;28;20177;-72
2022/11/20 03:11:38;;;;;;;11.20;8.37;;;5.40;99.90;;;;;;5048108;28;20173;-73
2022/11/20 03:14:05;;;;;;;10.90;7.97;;;5.40;99.90;;;;;;5038403;28;20457;-72
2022/11/20 03:16:32;;;;;;;12.33;8.33;;;5.30;99.90;;;;;;5046746;28;20277;-73
2022/11/20 03:18:58;;;;;;;13.07;8.73;;;5.40;99.90;;;;;;5043794;28;20178;-73
2022/11/20 03:21:26;;;;;;;10.90;8.27;;;5.40;99.90;;;;;;5039525;28;20175;-73
2022/11/20 03:23:56;;;;;;;11.53;8.73;;;5.40;99.90;;;;;;5044034;28;20265;-70
2022/11/20 03:26:25;;;;;;;11.33;8.60;;;5.30;99.90;;;;;;5055730;28;20240;-73
2022/11/20 03:28:57;;;;;;;12.13;9.23;;;5.30;99.90;;;;;;5041290;28;20201;-73
2022/11/20 03:31:32;;;;;;;14.90;9.67;;;5.30;99.90;;;;;;5054561;28;20215;-73
2022/11/20 03:33:58;;;;;;;12.50;9.13;;;5.30;99.90;;;;;;5043739;28;20174;-73
2022/11/20 03:36:25;;;;;;;13.20;9.03;;;5.30;99.90;;;;;;5044561;28;20184;-73
2022/11/20 03:38:52;;;;;;;12.33;8.90;;;5.20;99.90;;;;;;5041739;28;20210;-74
2022/11/20 03:41:33;;;;;;;13.03;9.63;;;5.20;99.90;;;;;;5045110;28;20174;-73
2022/11/20 03:44:01;;;;;;;12.87;8.97;;;5.20;99.90;;;;;;5047166;28;20275;-73
2022/11/20 03:46:28;;;;;;;12.90;9.47;;;5.20;99.90;;;;;;5048187;28;20461;-73
2022/11/20 03:48:54;;;;;;;13.40;9.33;;;5.20;99.90;;;;;;5048210;28;20185;-73
2022/11/20 03:51:25;;;;;;;13.50;9.30;;;5.20;99.90;;;;;;5038442;28;20340;-72
2022/11/20 03:53:53;;;;;;;14.23;9.73;;;5.20;99.90;;;;;;5045391;28;20181;-73
2022/11/20 03:56:24;;;;;;;15.50;10.50;;;5.20;99.90;;;;;;5041876;28;20269;-73
2022/11/20 03:58:49;;;;;;;13.57;9.57;;;5.20;99.90;;;;;;5044986;28;20181;-73
2022/11/20 04:01:18;;;;;;;13.43;9.20;;;5.20;99.90;;;;;;5052027;28;20277;-73
2022/11/20 04:03:45;;;;;;;14.57;9.87;;;5.20;99.90;;;;;;5048406;28;20188;-72
2022/11/20 04:06:19;;;;;;;15.17;10.33;;;5.20;99.90;;;;;;5047396;28;20181;-73
2022/11/20 04:08:48;;;;;;;14.00;9.50;;;5.10;99.90;;;;;;5042388;28;20196;-73
2022/11/20 04:11:21;;;;;;;13.73;9.40;;;5.20;99.90;;;;;;5046124;28;20206;-74
2022/11/20 04:13:49;;;;;;;14.40;9.70;;;5.20;99.90;;;;;;5048495;28;20185;-71
2022/11/20 04:16:15;;;;;;;15.20;9.83;;;5.30;99.90;;;;;;5043286;28;20236;-72
2022/11/20 04:18:41;;;;;;;16.40;11.07;;;5.30;99.90;;;;;;5052900;28;20190;-72
2022/11/20 04:21:07;;;;;;;16.63;10.40;;;5.30;99.90;;;;;;5050922;28;20198;-74
2022/11/20 04:23:33;;;;;;;15.07;10.00;;;5.30;99.90;;;;;;5041008;28;20193;-72
2022/11/20 04:26:07;;;;;;;14.97;9.80;;;5.30;99.90;;;;;;5046685;28;20173;-73
2022/11/20 04:28:33;;;;;;;15.93;10.10;;;5.30;99.90;;;;;;5043107;28;20177;-73
2022/11/20 04:31:11;;;;;;;14.83;10.53;;;5.40;99.90;;;;;;5050665;28;20417;-73
2022/11/20 04:33:40;;;;;;;14.67;9.80;;;5.40;99.90;;;;;;5052929;28;20205;-73
2022/11/20 04:36:35;;;;;;;15.00;10.20;;;5.40;99.90;;;;;;5038679;28;20182;-74
2022/11/20 04:39:04;;;;;;;14.87;10.13;;;5.40;99.90;;;;;;5029529;28;20245;-73
2022/11/20 04:41:35;;;;;;;13.77;9.30;;;5.40;99.90;;;;;;5051413;28;20182;-73
2022/11/20 04:44:03;;;;;;;14.97;10.00;;;5.40;99.90;;;;;;5044320;28;20170;-72
2022/11/20 04:46:31;;;;;;;15.67;10.13;;;5.40;99.90;;;;;;5036748;28;20205;-73
2022/11/20 04:48:59;;;;;;;15.80;9.73;;;5.40;99.90;;;;;;5047798;28;20174;-72
2022/11/20 04:51:28;;;;;;;17.30;10.37;;;5.50;99.90;;;;;;5042723;28;20551;-74
2022/11/20 04:53:56;;;;;;;13.47;9.37;;;5.40;99.90;;;;;;5042403;28;20198;-74
2022/11/20 04:56:21;;;;;;;15.80;9.63;;;5.40;99.90;;;;;;5047840;28;20178;-74
2022/11/20 04:58:52;;;;;;;13.77;9.00;;;5.40;99.90;;;;;;5036113;28;20189;-74
2022/11/20 05:01:24;;;;;;;14.90;9.60;;;5.40;99.90;;;;;;5041697;28;20192;-74
2022/11/20 05:03:50;;;;;;;14.47;8.87;;;5.30;99.90;;;;;;5042511;28;20193;-71
2022/11/20 05:06:19;;;;;;;15.07;9.77;;;5.30;99.90;;;;;;5050118;28;20192;-73
2022/11/20 05:08:44;;;;;;;13.67;8.53;;;5.30;99.90;;;;;;5047786;28;20198;-73
2022/11/20 05:11:13;;;;;;;13.17;9.33;;;5.30;99.90;;;;;;5036089;28;20416;-73
2022/11/20 05:13:41;;;;;;;15.23;9.37;;;5.30;99.90;;;;;;5043469;28;20177;-73
2022/11/20 05:16:19;;;;;;;15.33;9.47;;;5.30;99.90;;;;;;5053477;28;20281;-73
2022/11/20 05:18:47;;;;;;;13.23;8.63;;;5.30;99.90;;;;;;5036546;28;20212;-73
2022/11/20 05:21:13;;;;;;;14.33;9.73;;;5.30;99.90;;;;;;5044548;28;20214;-73
2022/11/20 05:23:45;;;;;;;13.03;8.97;;;5.30;99.90;;;;;;5052803;28;20201;-73
2022/11/20 05:26:31;;;;;;;14.83;9.77;;;5.30;99.90;;;;;;5048437;28;20177;-74
2022/11/20 05:28:56;;;;;;;13.93;8.83;;;5.40;99.90;;;;;;5036020;28;20202;-74
2022/11/20 05:31:27;;;;;;;16.50;10.00;;;5.40;99.90;;;;;;5045910;28;20243;-73
2022/11/20 05:33:56;;;;;;;15.07;9.70;;;5.40;99.90;;;;;;5045440;28;20170;-73
2022/11/20 05:36:21;;;;;;;17.37;10.53;;;5.40;99.90;;;;;;5047058;28;20291;-73
2022/11/20 05:38:47;;;;;;;16.83;9.73;;;5.40;99.90;;;;;;5048425;28;20264;-73
2022/11/20 05:41:17;;;;;;;15.40;9.93;;;5.40;99.90;;;;;;5052422;28;20208;-75
2022/11/20 05:43:45;;;;;;;17.03;10.20;;;5.40;99.90;;;;;;5037382;28;20213;-73
2022/11/20 05:46:16;;;;;;;15.37;10.33;;;5.40;99.90;;;;;;5046390;28;20320;-74
2022/11/20 05:48:43;;;;;;;16.27;10.23;;;5.40;99.90;;;;;;5044299;28;20188;-73
2022/11/20 05:51:11;;;;;;;16.73;10.00;;;5.40;99.90;;;;;;5037207;28;20181;-74
2022/11/20 05:53:37;;;;;;;16.50;10.40;;;5.40;99.90;;;;;;5040360;28;20192;-73
2022/11/20 05:56:12;;;;;;;17.93;10.90;;;5.40;99.90;;;;;;5043695;28;20174;-73
2022/11/20 05:58:38;;;;;;;16.63;10.90;;;5.40;99.90;;;;;;5036642;28;20195;-73
2022/11/20 06:01:13;;;;;;;18.20;10.57;;;5.40;99.90;;;;;;5041738;28;20243;-73
2022/11/20 06:03:45;;;;;;;16.27;10.50;;;5.40;99.90;;;;;;5044910;28;20266;-73
2022/11/20 06:06:14;;;;;;;16.40;10.00;;;5.40;99.90;;;;;;5047349;28;20228;-74
2022/11/20 06:08:43;;;;;;;14.73;9.77;;;5.40;99.90;;;;;;5049907;28;20182;-73
2022/11/20 06:11:11;;;;;;;14.57;9.63;;;5.40;99.90;;;;;;5042380;28;20232;-73
2022/11/20 06:13:36;;;;;;;15.70;9.97;;;5.40;99.90;;;;;;5052474;28;20246;-71
2022/11/20 06:16:03;;;;;;;15.20;9.47;;;5.40;99.90;;;;;;5040869;28;20181;-73
2022/11/20 06:18:29;;;;;;;16.90;10.13;;;5.40;99.90;;;;;;5035312;28;20208;-73
2022/11/20 06:21:01;;;;;;;15.57;10.03;;;5.40;99.90;;;;;;5051429;28;20182;-73
2022/11/20 06:23:34;;;;;;;17.83;10.23;;;5.40;99.90;;;;;;5044309;28;20206;-74
2022/11/20 06:26:24;;;;;;;17.20;9.97;;;5.50;99.90;;;;;;5036117;28;20285;-74
2022/11/20 06:28:55;;;;;;;16.03;10.17;;;5.40;99.90;;;;;;5044102;28;20265;-72
2022/11/20 06:31:23;;;;;;;17.37;10.87;;;5.40;99.90;;;;;;5051412;28;20204;-74
2022/11/20 06:33:49;;;;;;;15.67;10.27;;;5.40;99.90;;;;;;5046127;28;20182;-72
2022/11/20 06:36:18;;;;;;;16.53;10.60;;;5.40;99.90;;;;;;5046681;28;20205;-72
2022/11/20 06:38:44;;;;;;;16.37;10.40;;;5.40;99.90;;;;;;5045765;28;20449;-73
2022/11/20 06:41:13;;;;;;;12.50;9.07;;;5.40;99.90;;;;;;5044544;28;20193;-73
2022/11/20 06:43:38;;;;;;;14.87;9.97;;;5.50;99.90;;;;;;5033991;28;20207;-73
2022/11/20 06:46:06;;;;;;;13.23;9.97;;;5.50;99.90;;;;;;5042196;28;20176;-73
2022/11/20 06:48:32;;;;;;;13.27;9.43;;;5.50;99.90;;;;;;5045646;28;20186;-73
2022/11/20 06:50:58;;;;;;;14.93;9.87;;;5.50;99.90;;;;;;5048145;28;20208;-72
2022/11/20 06:53:24;;;;;;;14.60;10.00;;;5.50;99.90;;;;;;5046904;28;20189;-73
2022/11/20 06:55:51;;;;;;;13.77;9.67;;;5.50;99.90;;;;;;5049857;28;20213;-71
2022/11/20 06:58:17;;;;;;;14.43;10.30;;;5.50;99.90;;;;;;5049325;28;20250;-73
2022/11/20 07:00:46;;;;;;;12.00;8.53;;;5.50;99.90;;;;;;5046664;28;20189;-73
2022/11/20 07:03:14;;;;;;;12.37;9.03;;;5.50;99.90;;;;;;5054387;28;20229;-72
2022/11/20 07:05:40;;;;;;;13.73;8.80;;;5.50;99.90;;;;;;5051621;28;20243;-72
2022/11/20 07:08:06;;;;;;;14.47;10.33;;;5.50;99.90;;;;;;5056852;28;20280;-71
2022/11/20 07:10:35;;;;;;;16.20;11.03;;;5.60;99.90;;;;;;5045636;28;20173;-72
2022/11/20 07:13:00;;;;;;;16.10;11.97;;;5.50;99.90;;;;;;5041365;28;20189;-73
2022/11/20 07:15:29;;;;;;;14.03;10.70;;;5.60;99.90;;;;;;5054823;28;20181;-73
2022/11/20 07:17:54;;;;;;;13.87;9.67;;;5.60;99.90;;;;;;5045385;28;20292;-72
2022/11/20 07:20:20;;;;;;;14.10;10.43;;;5.60;99.90;;;;;;5043367;28;20264;-72
2022/11/20 07:22:46;;;;;;;19.07;13.90;;;5.60;99.90;;;;;;5049863;28;20204;-73
2022/11/20 07:25:14;;;;;;;13.87;10.53;;;5.60;99.90;;;;;;5054215;28;20177;-73
2022/11/20 07:27:41;;;;;;;16.67;10.50;;;5.60;99.90;;;;;;5045818;28;20224;-73
2022/11/20 07:30:07;;;;;;;14.57;9.97;;;5.60;99.90;;;;;;5052248;28;20502;-73
2022/11/20 07:32:33;;;;;;;12.73;9.67;;;5.60;99.90;;;;;;5059200;28;20185;-73
2022/11/20 07:34:58;;;;;;;12.97;9.97;;;5.70;99.90;;;;;;5045995;28;20284;-74
2022/11/20 07:37:26;;;;;;;12.87;8.70;;;5.70;99.90;;;;;;5042149;28;20270;-72
2022/11/20 07:39:54;;;;;;;12.63;9.10;;;5.70;99.90;;;;;;5048505;28;20189;-73
2022/11/20 07:42:19;;;;;;;13.07;9.23;;;5.70;99.90;;;;;;5045921;28;20264;-72
2022/11/20 07:44:45;;;;;;;12.77;8.97;;;5.70;99.90;;;;;;5044626;28;20202;-73
2022/11/20 07:47:11;;;;;;;12.57;8.97;;;5.70;99.90;;;;;;5046052;28;20200;-73
2022/11/20 07:49:38;;;;;;;12.93;9.70;;;5.70;99.90;;;;;;5050458;28;20248;-73
2022/11/20 07:52:04;;;;;;;17.30;12.77;;;5.70;99.90;;;;;;5040292;28;20192;-72
2022/11/20 07:54:30;;;;;;;14.83;10.37;;;5.70;99.90;;;;;;5039555;28;20226;-72
2022/11/20 07:56:55;;;;;;;12.43;9.53;;;5.70;99.90;;;;;;5046018;28;20201;-73
2022/11/20 07:59:21;;;;;;;12.60;9.07;;;5.70;99.90;;;;;;5039957;28;20178;-73
2022/11/20 08:01:48;;;;;;;13.53;9.53;;;5.80;99.90;;;;;;5051008;28;20213;-73
2022/11/20 08:04:16;;;;;;;12.67;9.20;;;5.80;99.90;;;;;;5040887;28;20877;-72
2022/11/20 08:06:42;;;;;;;12.37;8.97;;;5.80;99.90;;;;;;5044032;28;20201;-73
2022/11/20 08:09:07;;;;;;;12.53;9.30;;;5.80;99.90;;;;;;5046196;28;20170;-73
2022/11/20 08:14:17;;;;;;;11.80;8.83;;;5.80;99.90;;;;;;5050396;28;20270;-73
2022/11/20 08:16:47;;;;;;;11.97;8.73;;;5.90;99.90;;;;;;5048888;28;20213;-73
2022/11/20 08:19:15;;;;;;;13.47;9.30;;;5.90;99.90;;;;;;5041140;28;20196;-70
2022/11/20 08:21:41;;;;;;;12.53;9.17;;;5.90;99.90;;;;;;5036996;28;20178;-69
2022/11/20 08:24:07;;;;;;;12.80;8.87;;;5.90;99.90;;;;;;5041918;28;20182;-73
2022/11/20 08:26:34;;;;;;;13.30;9.33;;;6.00;99.90;;;;;;5050366;28;20258;-74
2022/11/20 08:29:01;;;;;;;13.00;9.30;;;6.10;99.90;;;;;;5042448;28;20201;-74
2022/11/20 08:31:27;;;;;;;13.23;8.70;;;6.00;99.90;;;;;;5053736;28;20174;-74
2022/11/20 08:33:54;;;;;;;13.20;9.30;;;6.00;99.90;;;;;;5052601;28;20177;-74
2022/11/20 08:36:20;;;;;;;12.40;9.17;;;6.00;99.90;;;;;;5050000;28;20206;-75
2022/11/20 08:38:55;;;;;;;13.03;9.23;;;6.00;99.90;;;;;;5044922;28;20193;-73
2022/11/20 08:41:23;;;;;;;12.40;8.93;;;6.10;99.90;;;;;;5040708;28;20181;-74
2022/11/20 08:44:01;;;;;;;11.83;8.73;;;6.10;99.90;;;;;;5058662;28;20365;-75
2022/11/20 08:46:39;;;;;;;13.27;9.53;;;6.10;99.90;;;;;;5053530;28;20245;-73
2022/11/20 08:49:10;;;;;;;13.87;9.57;;;6.10;99.90;;;;;;5051878;28;20188;-72
2022/11/20 08:51:36;;;;;;;13.73;9.60;;;6.10;99.90;;;;;;5042560;28;20290;-73
2022/11/20 08:54:05;;;;;;;13.90;9.57;;;6.10;99.90;;;;;;5055450;28;20208;-73
2022/11/20 08:56:31;;;;;;;14.93;9.67;;;6.10;99.90;;;;;;5056478;28;20206;-73
2022/11/20 08:58:59;;;;;;;12.77;9.33;;;6.20;99.90;;;;;;5048679;28;20173;-73
2022/11/20 09:01:25;;;;;;;14.60;10.23;;;6.20;99.90;;;;;;5063937;28;20178;-73
2022/11/20 09:03:56;;;;;;;13.20;9.67;;;6.30;99.90;;;;;;5047675;28;20189;-73
2022/11/20 09:06:26;;;;;;;14.03;9.80;;;6.30;99.90;;;;;;5054770;28;20232;-73
2022/11/20 09:08:53;;;;;;;13.93;9.90;;;6.30;99.90;;;;;;5042183;28;20181;-73
2022/11/20 09:11:19;;;;;;;13.03;9.30;;;6.40;99.90;;;;;;5045783;28;20170;-72
2022/11/20 09:13:47;;;;;;;13.93;9.57;;;6.40;99.90;;;;;;5043878;28;20184;-73
2022/11/20 09:16:13;;;;;;;14.03;9.87;;;6.40;99.90;;;;;;5035669;28;20277;-73
2022/11/20 09:18:38;;;;;;;13.77;9.80;;;6.50;99.90;;;;;;5043265;28;20272;-73
2022/11/20 09:21:08;;;;;;;12.70;9.20;;;6.50;99.90;;;;;;5048521;28;20268;-72
2022/11/20 09:23:35;;;;;;;14.40;10.53;;;6.60;99.90;;;;;;5036458;28;20225;-73
2022/11/20 09:26:11;;;;;;;13.47;9.63;;;6.60;99.90;;;;;;5048275;28;20181;-73
2022/11/20 09:28:37;;;;;;;14.37;10.07;;;6.70;99.90;;;;;;5044526;28;20189;-73
2022/11/20 09:31:07;;;;;;;14.97;10.27;;;6.70;99.90;;;;;;5043137;28;20200;-75
2022/11/20 09:33:35;;;;;;;14.83;10.83;;;6.70;99.90;;;;;;5042220;28;20281;-73
2022/11/20 09:36:01;;;;;;;14.80;10.73;;;6.70;99.90;;;;;;5048158;28;20229;-74
2022/11/20 09:38:27;;;;;;;17.13;11.13;;;6.70;99.90;;;;;;5036184;28;20247;-74
2022/11/20 09:40:52;;;;;;;15.27;10.73;;;6.70;99.90;;;;;;5046455;28;20211;-73
2022/11/20 09:43:20;;;;;;;15.73;11.10;;;6.80;99.90;;;;;;5036982;28;20181;-72
2022/11/20 09:46:37;;;;;;;16.53;11.67;;;6.80;99.90;;;;;;5047322;28;20249;-73
2022/11/20 09:49:21;;;;;;;16.10;11.27;;;6.90;99.90;;;;;;5031297;28;20192;-73
2022/11/20 09:51:58;;;;;;;17.50;12.17;;;6.90;99.90;;;;;;5037629;28;20209;-73
2022/11/20 09:54:34;;;;;;;15.10;11.23;;;6.90;99.90;;;;;;5045092;28;20197;-73
2022/11/20 09:57:07;;;;;;;16.40;11.07;;;6.90;99.90;;;;;;5036017;28;20197;-74
2022/11/20 09:59:48;;;;;;;16.30;11.03;;;6.90;99.90;;;;;;5043324;28;20178;-73
2022/11/20 10:02:18;;;;;;;15.47;10.87;;;7.00;99.90;;;;;;5049727;28;20170;-73
2022/11/20 10:04:54;;;;;;;15.27;10.77;;;7.10;99.90;;;;;;5045180;28;20187;-73
2022/11/20 10:07:36;;;;;;;17.47;12.63;;;7.10;99.90;;;;;;5049115;28;20267;-71
2022/11/20 10:10:02;;;;;;;21.60;14.53;;;7.30;99.90;;;;;;5047144;28;20186;-73
2022/11/20 10:12:45;;;;;;;18.67;12.43;;;7.30;99.90;;;;;;5042293;28;20185;-73
2022/11/20 10:15:31;;;;;;;14.90;11.03;;;7.50;99.90;;;;;;5048269;28;20185;-73
2022/11/20 10:18:11;;;;;;;14.23;10.07;;;7.60;99.90;;;;;;5052787;28;20209;-73
2022/11/20 10:21:02;;;;;;;14.67;10.20;;;7.60;99.90;;;;;;5053481;28;20208;-72
2022/11/20 10:23:46;;;;;;;12.70;8.87;;;7.70;99.90;;;;;;5047943;28;20193;-74
2022/11/20 10:26:14;;;;;;;11.80;8.00;;;7.70;99.90;;;;;;5041454;28;20200;-72
2022/11/20 10:28:54;;;;;;;12.47;9.10;;;7.70;99.90;;;;;;5045829;28;20181;-73
2022/11/20 10:31:38;;;;;;;11.83;8.80;;;7.70;99.90;;;;;;5053967;28;20189;-72
2022/11/20 10:34:30;;;;;;;14.30;9.70;;;7.70;99.90;;;;;;5039600;28;20189;-73
2022/11/20 10:37:07;;;;;;;11.93;8.43;;;7.70;99.90;;;;;;5043482;28;20483;-74
2022/11/20 10:39:39;;;;;;;12.77;8.60;;;7.70;99.90;;;;;;5036893;28;20209;-72
2022/11/20 10:42:31;;;;;;;14.37;9.30;;;7.70;99.90;;;;;;5052429;28;20177;-73
2022/11/20 10:45:24;;;;;;;12.00;8.60;;;7.70;99.90;;;;;;5056118;28;20202;-73
2022/11/20 10:47:54;;;;;;;12.20;8.23;;;7.60;99.90;;;;;;5001774;28;20247;-73
2022/11/20 10:50:22;;;;;;;12.73;8.17;;;7.60;99.90;;;;;;5034273;28;20204;-73
2022/11/20 10:53:13;;;;;;;12.40;8.43;;;7.60;99.90;;;;;;5043013;28;20201;-72
2022/11/20 10:56:02;;;;;;;10.70;7.57;;;7.50;99.90;;;;;;5048396;28;20200;-74
2022/11/20 10:59:02;;;;;;;11.43;7.30;;;7.50;99.90;;;;;;5041303;28;20216;-73
2022/11/20 11:01:30;;;;;;;10.83;8.10;;;7.50;99.90;;;;;;5047457;28;20193;-74
2022/11/20 11:03:58;;;;;;;10.97;7.90;;;7.40;99.90;;;;;;5048312;28;20200;-72
2022/11/20 11:06:36;;;;;;;11.30;8.10;;;7.40;99.90;;;;;;5053978;28;20188;-74
2022/11/20 11:09:13;;;;;;;11.33;8.27;;;7.50;99.90;;;;;;5053478;28;20212;-74
2022/11/20 11:11:39;;;;;;;12.23;8.43;;;7.40;99.90;;;;;;5058012;28;20178;-73
2022/11/20 11:14:11;;;;;;;12.47;8.37;;;7.40;99.90;;;;;;5040975;28;20182;-73
2022/11/20 11:16:52;;;;;;;12.87;9.00;;;7.60;99.90;;;;;;5034498;28;20209;-72
2022/11/20 11:19:17;;;;;;;13.97;8.90;;;7.50;99.90;;;;;;5053255;28;20177;-73
2022/11/20 11:21:51;;;;;;;13.40;9.23;;;7.60;99.90;;;;;;5042350;28;20192;-73
2022/11/20 11:24:28;;;;;;;14.27;9.00;;;7.60;99.90;;;;;;5042831;28;20231;-72
2022/11/20 11:27:10;;;;;;;13.13;9.27;;;7.60;99.90;;;;;;5047450;28;20185;-72
2022/11/20 11:29:36;;;;;;;13.67;9.20;;;7.70;99.90;;;;;;5040930;28;20698;-75
2022/11/20 11:32:08;;;;;;;12.33;8.50;;;7.80;99.90;;;;;;5042228;28;20228;-75
2022/11/20 11:34:34;;;;;;;11.47;8.60;;;7.80;99.90;;;;;;5036521;28;20267;-76
2022/11/20 11:37:04;;;;;;;13.40;9.07;;;7.80;99.90;;;;;;5045430;28;20212;-74
2022/11/20 11:39:35;;;;;;;12.83;8.77;;;7.80;99.90;;;;;;5048908;28;20298;-71
2022/11/20 11:42:01;;;;;;;10.00;7.43;;;7.80;99.90;;;;;;5046373;28;20178;-72
2022/11/20 11:47:30;;;;;;;12.97;8.63;;;7.80;99.90;;;;;;5052257;28;20220;-73
2022/11/20 11:50:08;;;;;;;10.70;7.07;;;7.80;99.90;;;;;;5045456;28;20200;-74
2022/11/20 11:52:46;;;;;;;12.17;8.50;;;7.90;99.90;;;;;;5050768;28;20189;-73
2022/11/20 11:55:41;;;;;;;11.97;8.80;;;7.80;99.90;;;;;;5040624;28;20192;-72
2022/11/20 11:58:46;;;;;;;13.40;9.00;;;7.90;99.90;;;;;;5045417;28;20237;-71
2022/11/20 12:01:32;;;;;;;13.87;8.87;;;7.90;99.90;;;;;;4997800;28;20214;-72
2022/11/20 12:04:20;;;;;;;15.13;10.47;;;7.90;99.90;;;;;;5004085;28;20255;-71
2022/11/20 12:06:51;;;;;;;16.57;11.37;;;8.00;99.90;;;;;;5025028;28;20196;-72
2022/11/20 12:09:19;;;;;;;15.50;10.73;;;8.00;99.90;;;;;;5045099;28;20186;-73
2022/11/20 12:12:05;;;;;;;17.33;11.80;;;8.00;99.90;;;;;;5052936;28;20185;-70
2022/11/20 12:14:35;;;;;;;17.17;11.77;;;8.00;99.90;;;;;;5044982;28;20173;-71
2022/11/20 12:17:04;;;;;;;16.17;11.43;;;8.00;99.90;;;;;;5047037;28;20215;-72
2022/11/20 12:19:34;;;;;;;19.00;11.77;;;8.00;99.90;;;;;;5049963;28;20198;-72
2022/11/20 12:22:17;;;;;;;14.90;10.73;;;8.00;99.90;;;;;;5037261;28;20170;-72
2022/11/20 12:25:04;;;;;;;15.67;10.50;;;8.00;99.90;;;;;;5050432;28;20192;-70
2022/11/20 12:27:35;;;;;;;13.70;9.83;;;8.00;99.90;;;;;;5044631;28;20243;-72
2022/11/20 12:30:10;;;;;;;14.03;9.77;;;8.10;99.90;;;;;;5056068;28;20253;-72
2022/11/20 12:32:47;;;;;;;15.77;9.47;;;8.10;99.90;;;;;;5050146;28;20290;-71
2022/11/20 12:35:31;;;;;;;14.73;10.23;;;8.10;99.90;;;;;;5054799;28;20181;-71
2022/11/20 12:38:31;;;;;;;16.93;9.90;;;8.20;99.90;;;;;;5047564;28;20201;-72
2022/11/20 12:47:35;;;;;;;13.67;9.23;;;8.30;99.90;;;;;;5044556;28;20239;-71
2022/11/20 12:50:39;;;;;;;13.33;8.83;;;8.30;99.90;;;;;;5054535;28;20173;-71
2022/11/20 12:53:25;;;;;;;12.73;9.30;;;8.40;99.90;;;;;;4955962;28;20280;-71
2022/11/20 12:56:11;;;;;;;15.63;10.07;;;8.40;99.90;;;;;;5046854;28;20308;-72
2022/11/20 12:58:49;;;;;;;15.73;10.30;;;8.40;99.90;;;;;;5059677;28;20222;-72
2022/11/20 13:01:42;;;;;;;13.57;9.80;;;8.40;99.90;;;;;;5037298;28;20460;-72
2022/11/20 13:04:36;;;;;;;14.60;9.93;;;8.40;99.90;;;;;;5054480;28;20172;-71
2022/11/20 13:07:07;;;;;;;14.07;10.17;;;8.50;99.90;;;;;;5051971;28;20177;-71
2022/11/20 13:09:36;;;;;;;13.50;9.70;;;8.50;99.90;;;;;;5045592;28;20196;-71
2022/11/20 13:12:08;;;;;;;13.73;9.50;;;8.40;99.90;;;;;;5048097;28;20347;-72
2022/11/20 13:14:58;;;;;;;17.80;10.60;;;8.50;99.90;;;;;;5049692;28;20194;-71
2022/11/20 13:17:38;;;;;;;12.93;9.40;;;8.50;99.90;;;;;;5035856;28;20201;-71